sensor_id;sensor_type;location;lat;lon;timestamp;pressure;altitude;pressure_sealevel;temperature
74539;BMP180;66042;51.090;-115.340;2023-09-08T00:02:25;86739.20;;;25.90
74539;BMP180;66042;51.090;-115.340;2023-09-08T00:04:52;86743.40;;;25.60
74539;BMP180;66042;51.090;-115.340;2023-09-08T00:07:20;86745.40;;;25.30
74539;BMP180;66042;51.090;-115.340;2023-09-08T00:09:47;86745.00;;;25.00
74539;BMP180;66042;51.090;-115.340;2023-09-08T00:12:13;86749.00;;;24.70
74539;BMP180;66042;51.090;-115.340;2023-09-08T00:14:40;86749.40;;;24.48
74539;BMP180;66042;51.090;-115.340;2023-09-08T00:17:08;86754.40;;;24.20
74539;BMP180;66042;51.090;-115.340;2023-09-08T00:19:35;86750.80;;;24.00
74539;BMP180;66042;51.090;-115.340;2023-09-08T00:22:02;86750.60;;;23.80
74539;BMP180;66042;51.090;-115.340;2023-09-08T00:24:32;86750.80;;;23.60
74539;BMP180;66042;51.090;-115.340;2023-09-08T00:26:59;86754.60;;;23.40
74539;BMP180;66042;51.090;-115.340;2023-09-08T00:29:26;86753.20;;;23.30
74539;BMP180;66042;51.090;-115.340;2023-09-08T00:31:52;86753.20;;;23.10
74539;BMP180;66042;51.090;-115.340;2023-09-08T00:34:19;86753.80;;;23.00
74539;BMP180;66042;51.090;-115.340;2023-09-08T00:36:46;86750.60;;;22.80
74539;BMP180;66042;51.090;-115.340;2023-09-08T00:39:13;86752.20;;;22.64
74539;BMP180;66042;51.090;-115.340;2023-09-08T00:41:39;86749.40;;;22.50
74539;BMP180;66042;51.090;-115.340;2023-09-08T00:44:06;86748.60;;;22.40
74539;BMP180;66042;51.090;-115.340;2023-09-08T00:46:35;86754.00;;;22.30
74539;BMP180;66042;51.090;-115.340;2023-09-08T00:49:03;86749.00;;;22.32
74539;BMP180;66042;51.090;-115.340;2023-09-08T00:51:30;86748.80;;;22.40
74539;BMP180;66042;51.090;-115.340;2023-09-08T00:53:57;86750.20;;;22.40
74539;BMP180;66042;51.090;-115.340;2023-09-08T00:56:24;86752.60;;;22.40
74539;BMP180;66042;51.090;-115.340;2023-09-08T00:58:51;86758.20;;;22.30
74539;BMP180;66042;51.090;-115.340;2023-09-08T01:01:18;86759.20;;;22.16
74539;BMP180;66042;51.090;-115.340;2023-09-08T01:03:46;86760.20;;;21.96
74539;BMP180;66042;51.090;-115.340;2023-09-08T01:06:14;86759.60;;;21.80
74539;BMP180;66042;51.090;-115.340;2023-09-08T01:08:42;86760.20;;;21.60
74539;BMP180;66042;51.090;-115.340;2023-09-08T01:11:10;86759.80;;;21.42
74539;BMP180;66042;51.090;-115.340;2023-09-08T01:13:37;86758.00;;;21.30
74539;BMP180;66042;51.090;-115.340;2023-09-08T01:16:04;86754.00;;;21.12
74539;BMP180;66042;51.090;-115.340;2023-09-08T01:18:31;86756.20;;;21.00
74539;BMP180;66042;51.090;-115.340;2023-09-08T01:26:41;86761.80;;;20.54
74539;BMP180;66042;51.090;-115.340;2023-09-08T01:29:10;86762.80;;;20.40
74539;BMP180;66042;51.090;-115.340;2023-09-08T01:31:38;86763.40;;;20.30
74539;BMP180;66042;51.090;-115.340;2023-09-08T01:34:05;86771.00;;;20.10
74539;BMP180;66042;51.090;-115.340;2023-09-08T01:36:35;86763.80;;;20.00
74539;BMP180;66042;51.090;-115.340;2023-09-08T01:39:02;86766.80;;;19.82
74539;BMP180;66042;51.090;-115.340;2023-09-08T01:41:29;86764.40;;;19.70
74539;BMP180;66042;51.090;-115.340;2023-09-08T01:43:58;86760.80;;;19.60
74539;BMP180;66042;51.090;-115.340;2023-09-08T01:46:25;86769.60;;;19.40
74539;BMP180;66042;51.090;-115.340;2023-09-08T01:48:52;86771.00;;;19.30
74539;BMP180;66042;51.090;-115.340;2023-09-08T01:51:18;86775.00;;;19.20
74539;BMP180;66042;51.090;-115.340;2023-09-08T01:53:45;86775.60;;;19.10
74539;BMP180;66042;51.090;-115.340;2023-09-08T01:56:11;86781.80;;;18.96
74539;BMP180;66042;51.090;-115.340;2023-09-08T01:58:38;86783.60;;;18.80
74539;BMP180;66042;51.090;-115.340;2023-09-08T02:01:05;86785.40;;;18.70
74539;BMP180;66042;51.090;-115.340;2023-09-08T02:03:35;86786.40;;;18.50
74539;BMP180;66042;51.090;-115.340;2023-09-08T02:06:02;86790.40;;;18.40
74539;BMP180;66042;51.090;-115.340;2023-09-08T02:08:29;86793.40;;;18.30
74539;BMP180;66042;51.090;-115.340;2023-09-08T02:10:56;86791.60;;;18.20
74539;BMP180;66042;51.090;-115.340;2023-09-08T02:13:22;86787.80;;;18.10
74539;BMP180;66042;51.090;-115.340;2023-09-08T02:15:49;86786.60;;;18.00
74539;BMP180;66042;51.090;-115.340;2023-09-08T02:18:16;86787.40;;;17.90
74539;BMP180;66042;51.090;-115.340;2023-09-08T02:20:43;86795.80;;;17.74
74539;BMP180;66042;51.090;-115.340;2023-09-08T02:23:10;86794.00;;;17.60
74539;BMP180;66042;51.090;-115.340;2023-09-08T02:25:37;86796.60;;;17.50
74539;BMP180;66042;51.090;-115.340;2023-09-08T02:28:04;86798.80;;;17.46
74539;BMP180;66042;51.090;-115.340;2023-09-08T02:30:31;86801.20;;;17.40
74539;BMP180;66042;51.090;-115.340;2023-09-08T02:32:57;86803.40;;;17.30
74539;BMP180;66042;51.090;-115.340;2023-09-08T02:35:24;86806.80;;;17.20
74539;BMP180;66042;51.090;-115.340;2023-09-08T02:37:51;86809.80;;;17.10
74539;BMP180;66042;51.090;-115.340;2023-09-08T02:40:18;86810.80;;;17.00
74539;BMP180;66042;51.090;-115.340;2023-09-08T02:42:47;86813.20;;;17.00
74539;BMP180;66042;51.090;-115.340;2023-09-08T02:45:14;86815.60;;;16.90
74539;BMP180;66042;51.090;-115.340;2023-09-08T02:47:41;86818.60;;;16.80
74539;BMP180;66042;51.090;-115.340;2023-09-08T02:50:08;86818.40;;;16.70
74539;BMP180;66042;51.090;-115.340;2023-09-08T02:52:35;86820.00;;;16.60
74539;BMP180;66042;51.090;-115.340;2023-09-08T02:55:03;86817.00;;;16.50
74539;BMP180;66042;51.090;-115.340;2023-09-08T02:57:30;86822.60;;;16.40
74539;BMP180;66042;51.090;-115.340;2023-09-08T02:59:57;86829.40;;;16.30
74539;BMP180;66042;51.090;-115.340;2023-09-08T03:02:26;86835.40;;;16.20
74539;BMP180;66042;51.090;-115.340;2023-09-08T03:04:53;86841.00;;;16.10
74539;BMP180;66042;51.090;-115.340;2023-09-08T03:07:19;86834.80;;;16.00
74539;BMP180;66042;51.090;-115.340;2023-09-08T03:09:46;86840.00;;;15.94
74539;BMP180;66042;51.090;-115.340;2023-09-08T03:12:13;86838.00;;;15.90
74539;BMP180;66042;51.090;-115.340;2023-09-08T03:14:40;86846.20;;;15.80
74539;BMP180;66042;51.090;-115.340;2023-09-08T03:17:07;86853.40;;;15.70
74539;BMP180;66042;51.090;-115.340;2023-09-08T03:19:34;86852.80;;;15.60
74539;BMP180;66042;51.090;-115.340;2023-09-08T03:22:00;86852.60;;;15.50
74539;BMP180;66042;51.090;-115.340;2023-09-08T03:24:27;86855.20;;;15.44
74539;BMP180;66042;51.090;-115.340;2023-09-08T03:26:54;86857.60;;;15.40
74539;BMP180;66042;51.090;-115.340;2023-09-08T03:29:21;86865.40;;;15.30
74539;BMP180;66042;51.090;-115.340;2023-09-08T03:31:48;86864.20;;;15.20
74539;BMP180;66042;51.090;-115.340;2023-09-08T03:34:15;86864.80;;;15.10
74539;BMP180;66042;51.090;-115.340;2023-09-08T03:36:44;86871.40;;;15.10
74539;BMP180;66042;51.090;-115.340;2023-09-08T03:39:11;86870.00;;;15.00
74539;BMP180;66042;51.090;-115.340;2023-09-08T03:41:38;86875.20;;;14.90
74539;BMP180;66042;51.090;-115.340;2023-09-08T03:44:08;86878.20;;;14.80
74539;BMP180;66042;51.090;-115.340;2023-09-08T03:46:35;86873.80;;;14.70
74539;BMP180;66042;51.090;-115.340;2023-09-08T03:49:03;86874.00;;;14.60
74539;BMP180;66042;51.090;-115.340;2023-09-08T03:51:30;86877.40;;;14.60
74539;BMP180;66042;51.090;-115.340;2023-09-08T03:53:57;86878.40;;;14.50
74539;BMP180;66042;51.090;-115.340;2023-09-08T03:56:24;86881.60;;;14.40
74539;BMP180;66042;51.090;-115.340;2023-09-08T03:58:51;86883.40;;;14.30
74539;BMP180;66042;51.090;-115.340;2023-09-08T04:01:18;86887.00;;;14.20
74539;BMP180;66042;51.090;-115.340;2023-09-08T04:03:45;86893.40;;;14.10
74539;BMP180;66042;51.090;-115.340;2023-09-08T04:06:12;86895.20;;;14.00
74539;BMP180;66042;51.090;-115.340;2023-09-08T04:08:39;86893.60;;;13.90
74539;BMP180;66042;51.090;-115.340;2023-09-08T04:11:08;86894.20;;;13.80
74539;BMP180;66042;51.090;-115.340;2023-09-08T04:13:35;86897.40;;;13.78
74539;BMP180;66042;51.090;-115.340;2023-09-08T04:16:02;86900.00;;;13.70
74539;BMP180;66042;51.090;-115.340;2023-09-08T04:18:29;86899.80;;;13.60
74539;BMP180;66042;51.090;-115.340;2023-09-08T04:20:56;86908.20;;;13.50
74539;BMP180;66042;51.090;-115.340;2023-09-08T04:23:23;86909.80;;;13.40
74539;BMP180;66042;51.090;-115.340;2023-09-08T04:25:49;86915.80;;;13.40
74539;BMP180;66042;51.090;-115.340;2023-09-08T04:28:16;86914.60;;;13.30
74539;BMP180;66042;51.090;-115.340;2023-09-08T04:30:43;86915.00;;;13.20
74539;BMP180;66042;51.090;-115.340;2023-09-08T04:33:10;86915.60;;;13.10
74539;BMP180;66042;51.090;-115.340;2023-09-08T04:35:37;86913.60;;;13.00
74539;BMP180;66042;51.090;-115.340;2023-09-08T04:38:05;86916.20;;;13.00
74539;BMP180;66042;51.090;-115.340;2023-09-08T04:40:31;86914.60;;;12.84
74539;BMP180;66042;51.090;-115.340;2023-09-08T04:42:58;86918.60;;;12.80
74539;BMP180;66042;51.090;-115.340;2023-09-08T04:45:25;86914.20;;;12.70
74539;BMP180;66042;51.090;-115.340;2023-09-08T04:47:52;86917.40;;;12.70
74539;BMP180;66042;51.090;-115.340;2023-09-08T04:50:19;86916.00;;;12.60
74539;BMP180;66042;51.090;-115.340;2023-09-08T04:52:47;86919.80;;;12.60
74539;BMP180;66042;51.090;-115.340;2023-09-08T04:55:14;86921.80;;;12.50
74539;BMP180;66042;51.090;-115.340;2023-09-08T04:57:41;86926.00;;;12.40
74539;BMP180;66042;51.090;-115.340;2023-09-08T05:00:08;86922.80;;;12.28
74539;BMP180;66042;51.090;-115.340;2023-09-08T05:02:35;86921.40;;;12.20
74539;BMP180;66042;51.090;-115.340;2023-09-08T05:05:04;86921.80;;;12.10
74539;BMP180;66042;51.090;-115.340;2023-09-08T05:07:30;86921.20;;;12.10
74539;BMP180;66042;51.090;-115.340;2023-09-08T05:09:58;86923.40;;;12.10
74539;BMP180;66042;51.090;-115.340;2023-09-08T05:12:26;86924.00;;;12.00
74539;BMP180;66042;51.090;-115.340;2023-09-08T05:14:53;86925.20;;;11.98
74539;BMP180;66042;51.090;-115.340;2023-09-08T05:17:26;86928.40;;;11.82
74539;BMP180;66042;51.090;-115.340;2023-09-08T05:19:53;86928.20;;;11.80
74539;BMP180;66042;51.090;-115.340;2023-09-08T05:22:19;86931.40;;;11.70
74539;BMP180;66042;51.090;-115.340;2023-09-08T05:24:46;86930.40;;;11.70
74539;BMP180;66042;51.090;-115.340;2023-09-08T05:27:13;86929.40;;;11.60
74539;BMP180;66042;51.090;-115.340;2023-09-08T05:29:40;86932.60;;;11.50
74539;BMP180;66042;51.090;-115.340;2023-09-08T05:32:09;86937.00;;;11.42
74539;BMP180;66042;51.090;-115.340;2023-09-08T05:34:39;86941.00;;;11.40
74539;BMP180;66042;51.090;-115.340;2023-09-08T05:37:06;86942.40;;;11.30
74539;BMP180;66042;51.090;-115.340;2023-09-08T05:39:33;86940.80;;;11.30
74539;BMP180;66042;51.090;-115.340;2023-09-08T05:41:59;86944.20;;;11.26
74539;BMP180;66042;51.090;-115.340;2023-09-08T05:44:26;86943.40;;;11.20
74539;BMP180;66042;51.090;-115.340;2023-09-08T05:46:53;86950.20;;;11.20
74539;BMP180;66042;51.090;-115.340;2023-09-08T05:49:20;86951.40;;;11.10
74539;BMP180;66042;51.090;-115.340;2023-09-08T05:51:47;86953.20;;;11.10
74539;BMP180;66042;51.090;-115.340;2023-09-08T05:54:16;86953.40;;;10.96
74539;BMP180;66042;51.090;-115.340;2023-09-08T05:56:43;86953.00;;;10.90
74539;BMP180;66042;51.090;-115.340;2023-09-08T05:59:10;86955.60;;;10.90
74539;BMP180;66042;51.090;-115.340;2023-09-08T06:01:37;86957.40;;;10.80
74539;BMP180;66042;51.090;-115.340;2023-09-08T06:04:03;86954.20;;;10.80
74539;BMP180;66042;51.090;-115.340;2023-09-08T06:06:30;86957.40;;;10.80
74539;BMP180;66042;51.090;-115.340;2023-09-08T06:08:57;86957.80;;;10.70
74539;BMP180;66042;51.090;-115.340;2023-09-08T06:11:23;86959.60;;;10.70
74539;BMP180;66042;51.090;-115.340;2023-09-08T06:13:50;86958.60;;;10.68
74539;BMP180;66042;51.090;-115.340;2023-09-08T06:16:19;86958.40;;;10.62
74539;BMP180;66042;51.090;-115.340;2023-09-08T06:18:46;86958.40;;;10.60
74539;BMP180;66042;51.090;-115.340;2023-09-08T06:21:13;86956.40;;;10.60
74539;BMP180;66042;51.090;-115.340;2023-09-08T06:23:40;86956.80;;;10.50
74539;BMP180;66042;51.090;-115.340;2023-09-08T06:26:07;86957.40;;;10.38
74539;BMP180;66042;51.090;-115.340;2023-09-08T06:28:34;86961.80;;;10.28
74539;BMP180;66042;51.090;-115.340;2023-09-08T06:31:02;86960.40;;;10.24
74539;BMP180;66042;51.090;-115.340;2023-09-08T06:33:28;86966.40;;;10.26
74539;BMP180;66042;51.090;-115.340;2023-09-08T06:35:56;86965.40;;;10.20
74539;BMP180;66042;51.090;-115.340;2023-09-08T06:38:22;86966.60;;;10.20
74539;BMP180;66042;51.090;-115.340;2023-09-08T06:40:49;86970.80;;;10.20
74539;BMP180;66042;51.090;-115.340;2023-09-08T06:43:19;86978.00;;;10.20
74539;BMP180;66042;51.090;-115.340;2023-09-08T06:45:49;86973.60;;;10.10
74539;BMP180;66042;51.090;-115.340;2023-09-08T06:48:17;86978.40;;;10.10
74539;BMP180;66042;51.090;-115.340;2023-09-08T06:50:43;86978.40;;;10.10
74539;BMP180;66042;51.090;-115.340;2023-09-08T06:53:11;86980.40;;;10.00
74539;BMP180;66042;51.090;-115.340;2023-09-08T06:55:38;86982.00;;;10.00
74539;BMP180;66042;51.090;-115.340;2023-09-08T06:58:05;86982.40;;;9.98
74539;BMP180;66042;51.090;-115.340;2023-09-08T07:00:31;86985.20;;;9.90
74539;BMP180;66042;51.090;-115.340;2023-09-08T07:02:58;86988.80;;;9.90
74539;BMP180;66042;51.090;-115.340;2023-09-08T07:05:25;86987.80;;;9.90
74539;BMP180;66042;51.090;-115.340;2023-09-08T07:07:52;86994.60;;;9.82
74539;BMP180;66042;51.090;-115.340;2023-09-08T07:10:19;86991.80;;;9.80
74539;BMP180;66042;51.090;-115.340;2023-09-08T07:12:47;86989.00;;;9.70
74539;BMP180;66042;51.090;-115.340;2023-09-08T07:15:14;86986.80;;;9.70
74539;BMP180;66042;51.090;-115.340;2023-09-08T07:17:41;86989.80;;;9.70
74539;BMP180;66042;51.090;-115.340;2023-09-08T07:20:09;86992.60;;;9.70
74539;BMP180;66042;51.090;-115.340;2023-09-08T07:22:35;86993.40;;;9.70
74539;BMP180;66042;51.090;-115.340;2023-09-08T07:25:02;86991.20;;;9.70
74539;BMP180;66042;51.090;-115.340;2023-09-08T07:27:29;86998.40;;;9.70
74539;BMP180;66042;51.090;-115.340;2023-09-08T07:29:56;86994.40;;;9.60
74539;BMP180;66042;51.090;-115.340;2023-09-08T07:32:23;86994.00;;;9.60
74539;BMP180;66042;51.090;-115.340;2023-09-08T07:34:51;86991.60;;;9.60
74539;BMP180;66042;51.090;-115.340;2023-09-08T07:37:23;86991.60;;;9.60
74539;BMP180;66042;51.090;-115.340;2023-09-08T07:39:51;86994.40;;;9.60
74539;BMP180;66042;51.090;-115.340;2023-09-08T07:42:17;86994.40;;;9.60
74539;BMP180;66042;51.090;-115.340;2023-09-08T07:44:45;86998.20;;;9.60
74539;BMP180;66042;51.090;-115.340;2023-09-08T07:47:12;86997.40;;;9.60
74539;BMP180;66042;51.090;-115.340;2023-09-08T07:49:44;87001.60;;;9.56
74539;BMP180;66042;51.090;-115.340;2023-09-08T07:52:11;87001.00;;;9.56
74539;BMP180;66042;51.090;-115.340;2023-09-08T07:54:38;87000.40;;;9.60
74539;BMP180;66042;51.090;-115.340;2023-09-08T07:57:05;87004.80;;;9.60
74539;BMP180;66042;51.090;-115.340;2023-09-08T07:59:32;87003.20;;;9.60
74539;BMP180;66042;51.090;-115.340;2023-09-08T08:01:59;86999.60;;;9.68
74539;BMP180;66042;51.090;-115.340;2023-09-08T08:04:26;86996.40;;;9.70
74539;BMP180;66042;51.090;-115.340;2023-09-08T08:06:53;86994.20;;;9.70
74539;BMP180;66042;51.090;-115.340;2023-09-08T08:09:20;86990.80;;;9.70
74539;BMP180;66042;51.090;-115.340;2023-09-08T08:11:46;86989.40;;;9.70
74539;BMP180;66042;51.090;-115.340;2023-09-08T08:14:13;86988.60;;;9.70
74539;BMP180;66042;51.090;-115.340;2023-09-08T08:16:40;86989.00;;;9.70
74539;BMP180;66042;51.090;-115.340;2023-09-08T08:19:06;86988.80;;;9.70
74539;BMP180;66042;51.090;-115.340;2023-09-08T08:21:34;86990.40;;;9.64
74539;BMP180;66042;51.090;-115.340;2023-09-08T08:24:01;86990.60;;;9.50
74539;BMP180;66042;51.090;-115.340;2023-09-08T08:26:27;86987.00;;;9.50
74539;BMP180;66042;51.090;-115.340;2023-09-08T08:28:59;86988.20;;;9.50
74539;BMP180;66042;51.090;-115.340;2023-09-08T08:31:26;86996.00;;;9.50
74539;BMP180;66042;51.090;-115.340;2023-09-08T08:33:53;86994.20;;;9.50
74539;BMP180;66042;51.090;-115.340;2023-09-08T08:36:20;86996.00;;;9.50
74539;BMP180;66042;51.090;-115.340;2023-09-08T08:38:47;87005.40;;;9.50
74539;BMP180;66042;51.090;-115.340;2023-09-08T08:41:14;87007.80;;;9.50
74539;BMP180;66042;51.090;-115.340;2023-09-08T08:43:43;87005.00;;;9.50
74539;BMP180;66042;51.090;-115.340;2023-09-08T08:46:12;87005.00;;;9.50
74539;BMP180;66042;51.090;-115.340;2023-09-08T08:48:41;87006.40;;;9.42
74539;BMP180;66042;51.090;-115.340;2023-09-08T08:51:11;86998.40;;;9.40
74539;BMP180;66042;51.090;-115.340;2023-09-08T08:53:40;87001.00;;;9.30
74539;BMP180;66042;51.090;-115.340;2023-09-08T08:56:08;87000.80;;;9.30
74539;BMP180;66042;51.090;-115.340;2023-09-08T08:58:39;87008.20;;;9.28
74539;BMP180;66042;51.090;-115.340;2023-09-08T09:01:07;87008.60;;;9.30
74539;BMP180;66042;51.090;-115.340;2023-09-08T09:03:35;87012.00;;;9.30
74539;BMP180;66042;51.090;-115.340;2023-09-08T09:06:04;87014.80;;;9.20
74539;BMP180;66042;51.090;-115.340;2023-09-08T09:08:32;87021.40;;;9.20
74539;BMP180;66042;51.090;-115.340;2023-09-08T09:11:00;87019.20;;;9.28
74539;BMP180;66042;51.090;-115.340;2023-09-08T09:13:27;87020.80;;;9.30
74539;BMP180;66042;51.090;-115.340;2023-09-08T09:15:59;87019.40;;;9.30
74539;BMP180;66042;51.090;-115.340;2023-09-08T09:18:27;87024.40;;;9.30
74539;BMP180;66042;51.090;-115.340;2023-09-08T09:20:59;87021.40;;;9.30
74539;BMP180;66042;51.090;-115.340;2023-09-08T09:23:34;87020.20;;;9.24
74539;BMP180;66042;51.090;-115.340;2023-09-08T09:26:03;87018.40;;;9.20
74539;BMP180;66042;51.090;-115.340;2023-09-08T09:28:30;87016.20;;;9.20
74539;BMP180;66042;51.090;-115.340;2023-09-08T09:30:58;87014.00;;;9.20
74539;BMP180;66042;51.090;-115.340;2023-09-08T09:33:25;87017.60;;;9.20
74539;BMP180;66042;51.090;-115.340;2023-09-08T09:35:54;87023.20;;;9.12
74539;BMP180;66042;51.090;-115.340;2023-09-08T09:38:22;87021.00;;;9.08
74539;BMP180;66042;51.090;-115.340;2023-09-08T09:40:49;87020.00;;;8.90
74539;BMP180;66042;51.090;-115.340;2023-09-08T09:43:19;87020.80;;;8.90
74539;BMP180;66042;51.090;-115.340;2023-09-08T09:45:46;87021.80;;;8.84
74539;BMP180;66042;51.090;-115.340;2023-09-08T09:48:14;87032.00;;;8.82
74539;BMP180;66042;51.090;-115.340;2023-09-08T09:50:42;87033.20;;;8.80
74539;BMP180;66042;51.090;-115.340;2023-09-08T09:53:16;87030.00;;;8.80
74539;BMP180;66042;51.090;-115.340;2023-09-08T09:55:46;87027.40;;;8.84
74539;BMP180;66042;51.090;-115.340;2023-09-08T09:58:13;87033.60;;;8.86
74539;BMP180;66042;51.090;-115.340;2023-09-08T10:00:45;87038.20;;;8.90
74539;BMP180;66042;51.090;-115.340;2023-09-08T10:03:14;87038.20;;;8.90
74539;BMP180;66042;51.090;-115.340;2023-09-08T10:05:41;87037.00;;;8.90
74539;BMP180;66042;51.090;-115.340;2023-09-08T10:08:09;87035.20;;;8.90
74539;BMP180;66042;51.090;-115.340;2023-09-08T10:10:37;87036.00;;;8.90
74539;BMP180;66042;51.090;-115.340;2023-09-08T10:13:06;87034.80;;;8.80
74539;BMP180;66042;51.090;-115.340;2023-09-08T10:15:34;87034.80;;;8.80
74539;BMP180;66042;51.090;-115.340;2023-09-08T10:18:05;87040.00;;;8.80
74539;BMP180;66042;51.090;-115.340;2023-09-08T10:20:34;87035.60;;;8.70
74539;BMP180;66042;51.090;-115.340;2023-09-08T10:23:18;87027.40;;;8.70
74539;BMP180;66042;51.090;-115.340;2023-09-08T10:25:53;87026.60;;;8.60
74539;BMP180;66042;51.090;-115.340;2023-09-08T10:28:24;87032.80;;;8.58
74539;BMP180;66042;51.090;-115.340;2023-09-08T10:30:52;87028.40;;;8.50
74539;BMP180;66042;51.090;-115.340;2023-09-08T10:33:20;87024.20;;;8.40
74539;BMP180;66042;51.090;-115.340;2023-09-08T10:35:50;87027.60;;;8.40
74539;BMP180;66042;51.090;-115.340;2023-09-08T10:38:32;87037.20;;;8.40
74539;BMP180;66042;51.090;-115.340;2023-09-08T10:43:54;87030.00;;;8.32
74539;BMP180;66042;51.090;-115.340;2023-09-08T10:46:27;87031.80;;;8.30
74539;BMP180;66042;51.090;-115.340;2023-09-08T10:49:00;87033.40;;;8.30
74539;BMP180;66042;51.090;-115.340;2023-09-08T10:51:28;87032.00;;;8.30
74539;BMP180;66042;51.090;-115.340;2023-09-08T10:53:55;87030.40;;;8.30
74539;BMP180;66042;51.090;-115.340;2023-09-08T10:56:29;87033.40;;;8.30
74539;BMP180;66042;51.090;-115.340;2023-09-08T10:59:15;87037.00;;;8.30
74539;BMP180;66042;51.090;-115.340;2023-09-08T11:01:42;87034.40;;;8.20
74539;BMP180;66042;51.090;-115.340;2023-09-08T11:04:10;87037.20;;;8.18
74539;BMP180;66042;51.090;-115.340;2023-09-08T11:06:39;87033.60;;;8.16
74539;BMP180;66042;51.090;-115.340;2023-09-08T11:09:09;87036.80;;;8.20
74539;BMP180;66042;51.090;-115.340;2023-09-08T11:11:36;87037.20;;;8.18
74539;BMP180;66042;51.090;-115.340;2023-09-08T11:14:03;87043.80;;;8.12
74539;BMP180;66042;51.090;-115.340;2023-09-08T11:16:31;87045.80;;;8.10
74539;BMP180;66042;51.090;-115.340;2023-09-08T11:18:59;87042.40;;;8.10
74539;BMP180;66042;51.090;-115.340;2023-09-08T11:21:31;87039.40;;;8.06
74539;BMP180;66042;51.090;-115.340;2023-09-08T11:24:04;87046.40;;;8.00
74539;BMP180;66042;51.090;-115.340;2023-09-08T11:26:35;87054.00;;;8.00
74539;BMP180;66042;51.090;-115.340;2023-09-08T11:29:05;87052.20;;;8.00
74539;BMP180;66042;51.090;-115.340;2023-09-08T11:31:32;87052.00;;;7.90
74539;BMP180;66042;51.090;-115.340;2023-09-08T11:33:58;87054.20;;;7.90
74539;BMP180;66042;51.090;-115.340;2023-09-08T11:36:26;87056.60;;;7.80
74539;BMP180;66042;51.090;-115.340;2023-09-08T11:38:53;87058.00;;;7.80
74539;BMP180;66042;51.090;-115.340;2023-09-08T11:41:20;87056.60;;;7.80
74539;BMP180;66042;51.090;-115.340;2023-09-08T11:43:50;87056.80;;;7.74
74539;BMP180;66042;51.090;-115.340;2023-09-08T11:46:18;87060.60;;;7.70
74539;BMP180;66042;51.090;-115.340;2023-09-08T11:48:47;87062.20;;;7.70
74539;BMP180;66042;51.090;-115.340;2023-09-08T11:51:13;87065.20;;;7.70
74539;BMP180;66042;51.090;-115.340;2023-09-08T11:53:41;87062.20;;;7.70
74539;BMP180;66042;51.090;-115.340;2023-09-08T11:56:09;87062.80;;;7.70
74539;BMP180;66042;51.090;-115.340;2023-09-08T11:58:37;87064.20;;;7.70
74539;BMP180;66042;51.090;-115.340;2023-09-08T12:01:05;87061.40;;;7.70
74539;BMP180;66042;51.090;-115.340;2023-09-08T12:03:32;87059.80;;;7.70
74539;BMP180;66042;51.090;-115.340;2023-09-08T12:05:59;87064.00;;;7.60
74539;BMP180;66042;51.090;-115.340;2023-09-08T12:08:28;87075.40;;;7.54
74539;BMP180;66042;51.090;-115.340;2023-09-08T12:10:55;87079.40;;;7.52
74539;BMP180;66042;51.090;-115.340;2023-09-08T12:13:23;87079.20;;;7.50
74539;BMP180;66042;51.090;-115.340;2023-09-08T12:15:50;87083.80;;;7.48
74539;BMP180;66042;51.090;-115.340;2023-09-08T12:18:17;87082.00;;;7.40
74539;BMP180;66042;51.090;-115.340;2023-09-08T12:20:45;87082.60;;;7.40
74539;BMP180;66042;51.090;-115.340;2023-09-08T12:23:21;87079.20;;;7.40
74539;BMP180;66042;51.090;-115.340;2023-09-08T12:25:52;87079.20;;;7.40
74539;BMP180;66042;51.090;-115.340;2023-09-08T12:28:22;87081.40;;;7.38
74539;BMP180;66042;51.090;-115.340;2023-09-08T12:30:52;87082.40;;;7.30
74539;BMP180;66042;51.090;-115.340;2023-09-08T12:33:20;87079.00;;;7.30
74539;BMP180;66042;51.090;-115.340;2023-09-08T12:35:47;87078.00;;;7.20
74539;BMP180;66042;51.090;-115.340;2023-09-08T12:38:19;87077.20;;;7.20
74539;BMP180;66042;51.090;-115.340;2023-09-08T12:40:46;87079.60;;;7.20
74539;BMP180;66042;51.090;-115.340;2023-09-08T12:43:13;87077.40;;;7.20
74539;BMP180;66042;51.090;-115.340;2023-09-08T12:45:40;87082.00;;;7.20
74539;BMP180;66042;51.090;-115.340;2023-09-08T12:48:07;87088.60;;;7.20
74539;BMP180;66042;51.090;-115.340;2023-09-08T12:50:34;87085.40;;;7.20
74539;BMP180;66042;51.090;-115.340;2023-09-08T12:53:00;87091.20;;;7.20
74539;BMP180;66042;51.090;-115.340;2023-09-08T12:55:27;87090.60;;;7.18
74539;BMP180;66042;51.090;-115.340;2023-09-08T12:57:54;87090.00;;;7.16
74539;BMP180;66042;51.090;-115.340;2023-09-08T13:00:23;87091.60;;;7.10
74539;BMP180;66042;51.090;-115.340;2023-09-08T13:02:50;87092.60;;;7.10
74539;BMP180;66042;51.090;-115.340;2023-09-08T13:05:17;87089.60;;;7.10
74539;BMP180;66042;51.090;-115.340;2023-09-08T13:07:44;87090.20;;;7.00
74539;BMP180;66042;51.090;-115.340;2023-09-08T13:10:11;87092.40;;;7.00
74539;BMP180;66042;51.090;-115.340;2023-09-08T13:12:38;87090.60;;;6.90
74539;BMP180;66042;51.090;-115.340;2023-09-08T13:15:06;87089.80;;;6.90
74539;BMP180;66042;51.090;-115.340;2023-09-08T13:17:33;87091.40;;;6.80
74539;BMP180;66042;51.090;-115.340;2023-09-08T13:20:01;87090.20;;;6.84
74539;BMP180;66042;51.090;-115.340;2023-09-08T13:22:29;87089.00;;;6.90
74539;BMP180;66042;51.090;-115.340;2023-09-08T13:24:56;87093.60;;;6.88
74539;BMP180;66042;51.090;-115.340;2023-09-08T13:27:23;87094.60;;;6.80
74539;BMP180;66042;51.090;-115.340;2023-09-08T13:29:53;87092.20;;;6.82
74539;BMP180;66042;51.090;-115.340;2023-09-08T13:32:20;87091.00;;;6.88
74539;BMP180;66042;51.090;-115.340;2023-09-08T13:34:48;87095.20;;;6.90
74539;BMP180;66042;51.090;-115.340;2023-09-08T13:37:16;87092.60;;;6.90
74539;BMP180;66042;51.090;-115.340;2023-09-08T13:39:43;87096.40;;;6.90
74539;BMP180;66042;51.090;-115.340;2023-09-08T13:42:10;87100.40;;;6.90
74539;BMP180;66042;51.090;-115.340;2023-09-08T13:44:37;87102.00;;;6.90
74539;BMP180;66042;51.090;-115.340;2023-09-08T13:47:05;87105.00;;;6.90
74539;BMP180;66042;51.090;-115.340;2023-09-08T13:49:31;87104.60;;;6.80
74539;BMP180;66042;51.090;-115.340;2023-09-08T13:51:58;87103.40;;;6.78